Time,TemperatureF,DewpointF,PressureIn,WindDirection,WindDirectionDegrees,WindSpeedMPH,WindSpeedGustMPH,Humidity,HourlyPrecipIn,Conditions,Clouds,dailyrainin,SoftwareType,DateUTC
2013-10-07 00:13:00,51.0,43.0,29.85,SW,229,2.0,6.0,73,0.00,,,0.01,,2013-10-07 04:13:00,
2013-10-07 00:24:00,51.0,43.0,29.85,SW,229,2.0,6.0,73,0.00,,,0.01,,2013-10-07 04:24:00,
2013-10-07 00:53:00,51.0,43.0,29.85,SSE,166,3.0,7.0,73,0.00,,,0.01,,2013-10-07 04:53:00,
2013-10-07 01:13:00,51.0,43.0,29.85,SSW,210,3.0,6.0,74,0.00,,,0.01,,2013-10-07 05:13:00,
2013-10-07 01:22:00,51.0,43.0,29.85,SSW,210,3.0,6.0,74,0.00,,,0.01,,2013-10-07 05:22:00,
2013-10-07 01:43:00,51.0,43.0,29.84,SW,218,3.0,7.0,74,0.00,,,0.01,,2013-10-07 05:43:00,
2013-10-07 01:52:00,51.0,43.0,29.84,SW,218,3.0,7.0,74,0.00,,,0.01,,2013-10-07 05:52:00,
2013-10-07 02:12:00,51.0,44.0,29.84,WSW,252,6.0,16.0,76,0.00,,,0.01,,2013-10-07 06:12:00,
2013-10-07 02:21:00,51.0,44.0,29.84,WSW,252,6.0,16.0,76,0.00,,,0.01,,2013-10-07 06:21:00,
2013-10-07 02:42:00,51.0,45.0,29.84,WSW,244,3.0,13.0,79,0.00,,,0.01,,2013-10-07 06:42:00,
2013-10-07 02:53:00,51.0,45.0,29.84,WSW,244,3.0,13.0,79,0.00,,,0.01,,2013-10-07 06:53:00,
2013-10-07 03:12:00,52.0,46.0,29.86,West,267,2.0,11.0,80,0.00,,,0.01,,2013-10-07 07:12:00,
2013-10-07 03:22:00,52.0,46.0,29.86,West,267,2.0,11.0,80,0.00,,,0.01,,2013-10-07 07:22:00,
2013-10-07 03:42:00,47.0,43.0,29.88,WNW,303,4.0,10.0,87,0.00,,,0.01,,2013-10-07 07:42:00,
2013-10-07 03:52:00,47.0,43.0,29.88,WNW,303,4.0,10.0,87,0.00,,,0.01,,2013-10-07 07:52:00,
2013-10-07 04:12:00,47.0,43.0,29.89,WNW,297,2.0,7.0,87,0.00,,,0.01,,2013-10-07 08:12:00,
2013-10-07 04:21:00,47.0,43.0,29.89,WNW,297,2.0,7.0,87,0.00,,,0.01,,2013-10-07 08:21:00,
2013-10-07 04:52:00,45.0,41.0,29.90,West,275,1.0,4.0,87,0.00,,,0.01,,2013-10-07 08:52:00,
2013-10-07 05:02:00,45.0,41.0,29.90,West,275,1.0,4.0,87,0.00,,,0.01,,2013-10-07 09:02:00,
2013-10-07 05:21:00,45.0,42.0,29.91,West,276,0.0,2.0,88,0.00,,,0.01,,2013-10-07 09:21:00,
2013-10-07 05:33:00,45.0,42.0,29.91,West,276,0.0,2.0,88,0.00,,,0.01,,2013-10-07 09:33:00,
2013-10-07 05:54:00,45.0,42.0,29.92,West,276,0.0,2.0,89,0.00,,,0.01,,2013-10-07 09:54:00,
2013-10-07 06:03:00,45.0,42.0,29.92,West,276,0.0,2.0,89,0.00,,,0.01,,2013-10-07 10:03:00,
2013-10-07 06:23:00,44.0,41.0,29.93,West,276,0.0,3.0,90,0.00,,,0.01,,2013-10-07 10:23:00,
2013-10-07 06:33:00,44.0,41.0,29.93,West,276,0.0,3.0,90,0.00,,,0.01,,2013-10-07 10:33:00,
2013-10-07 06:53:00,44.0,41.0,29.94,West,276,0.0,2.0,90,0.00,,,0.01,,2013-10-07 10:53:00,
2013-10-07 07:02:00,44.0,41.0,29.94,West,276,0.0,2.0,90,0.00,,,0.01,,2013-10-07 11:02:00,
2013-10-07 07:12:00,44.0,41.0,29.94,West,276,0.0,2.0,90,0.00,,,0.01,,2013-10-07 11:12:00,
2013-10-07 07:22:00,44.0,41.0,29.94,West,276,0.0,2.0,90,0.00,,,0.01,,2013-10-07 11:22:00,
2013-10-07 07:42:00,44.0,42.0,29.95,West,276,1.0,5.0,91,0.00,,,0.01,,2013-10-07 11:42:00,
2013-10-07 07:52:00,45.0,43.0,29.96,WNW,295,2.0,6.0,91,0.01,,,0.02,,2013-10-07 11:52:00,
2013-10-07 08:02:00,45.0,43.0,29.96,WNW,295,2.0,6.0,91,0.01,,,0.02,,2013-10-07 12:02:00,
2013-10-07 08:12:00,45.0,43.0,29.96,WNW,295,2.0,6.0,91,0.01,,,0.02,,2013-10-07 12:12:00,
2013-10-07 08:22:00,45.0,43.0,29.96,WNW,295,2.0,6.0,91,0.01,,,0.02,,2013-10-07 12:22:00,
2013-10-07 08:43:00,45.0,42.0,29.96,WNW,287,0.0,1.0,90,0.01,,,0.02,,2013-10-07 12:43:00,
2013-10-07 08:52:00,45.0,42.0,29.96,WNW,287,0.0,1.0,90,0.01,,,0.02,,2013-10-07 12:52:00,
2013-10-07 09:11:00,45.0,42.0,29.98,SW,233,1.0,5.0,90,0.00,,,0.02,,2013-10-07 13:11:00,
2013-10-07 09:22:00,45.0,42.0,29.98,SW,233,1.0,5.0,90,0.00,,,0.02,,2013-10-07 13:22:00,
2013-10-07 09:42:00,46.0,44.0,29.99,WSW,237,0.0,2.0,91,0.00,,,0.01,,2013-10-07 13:42:00,
2013-10-07 09:52:00,46.0,44.0,29.99,WSW,237,0.0,2.0,91,0.00,,,0.01,,2013-10-07 13:52:00,
2013-10-07 10:11:00,48.0,45.0,30.01,WSW,256,0.0,7.0,90,0.00,,,0.01,,2013-10-07 14:11:00,
2013-10-07 10:22:00,48.0,45.0,30.01,WSW,256,0.0,7.0,90,0.00,,,0.01,,2013-10-07 14:22:00,
2013-10-07 10:32:00,48.0,45.0,30.01,WSW,256,0.0,7.0,90,0.00,,,0.01,,2013-10-07 14:32:00,
2013-10-07 11:11:00,50.0,47.0,30.03,WSW,243,3.0,10.0,89,0.00,,,0.01,,2013-10-07 15:11:00,
2013-10-07 11:22:00,50.0,47.0,30.03,WSW,243,3.0,10.0,89,0.00,,,0.01,,2013-10-07 15:22:00,
2013-10-07 11:43:00,51.0,47.0,30.05,West,270,1.0,8.0,87,0.00,,,0.01,,2013-10-07 15:43:00,
2013-10-07 11:53:00,51.0,47.0,30.05,West,270,1.0,8.0,87,0.00,,,0.01,,2013-10-07 15:53:00,
2013-10-07 12:13:00,53.0,47.0,30.06,WSW,256,3.0,10.0,81,0.00,,,0.01,,2013-10-07 16:13:00,
2013-10-07 12:23:00,53.0,47.0,30.06,WSW,256,3.0,10.0,81,0.00,,,0.01,,2013-10-07 16:23:00,
2013-10-07 12:53:00,55.0,47.0,30.06,WSW,244,2.0,10.0,75,0.00,,,0.01,,2013-10-07 16:53:00,
2013-10-07 13:03:00,55.0,47.0,30.06,WSW,244,2.0,10.0,75,0.00,,,0.01,,2013-10-07 17:03:00,
2013-10-07 13:22:00,58.0,49.0,30.07,NW,314,4.0,11.0,71,0.00,,,0.01,,2013-10-07 17:22:00,
2013-10-07 13:33:00,58.0,49.0,30.07,NW,314,4.0,11.0,71,0.00,,,0.01,,2013-10-07 17:33:00,
2013-10-07 13:52:00,60.0,49.0,30.07,WNW,292,3.0,9.0,66,0.00,,,0.01,,2013-10-07 17:52:00,
2013-10-07 14:02:00,60.0,49.0,30.07,WNW,292,3.0,9.0,66,0.00,,,0.01,,2013-10-07 18:02:00,
2013-10-07 14:22:00,61.0,46.0,30.06,NW,317,3.0,9.0,58,0.00,,,0.01,,2013-10-07 18:22:00,
2013-10-07 14:32:00,61.0,46.0,30.06,NW,317,3.0,9.0,58,0.00,,,0.01,,2013-10-07 18:32:00,
2013-10-07 14:52:00,63.0,47.0,30.05,WNW,288,4.0,7.0,56,0.00,,,0.01,,2013-10-07 18:52:00,
2013-10-07 15:02:00,63.0,47.0,30.05,WNW,288,4.0,7.0,56,0.00,,,0.01,,2013-10-07 19:02:00,
2013-10-07 15:22:00,64.0,47.0,30.05,WNW,291,7.0,13.0,54,0.00,,,0.01,,2013-10-07 19:22:00,
2013-10-07 15:32:00,64.0,47.0,30.05,WNW,291,7.0,13.0,54,0.00,,,0.01,,2013-10-07 19:32:00,
2013-10-07 15:53:00,64.0,47.0,30.05,WNW,291,7.0,13.0,54,0.00,,,0.01,,2013-10-07 19:53:00,
2013-10-07 16:22:00,66.0,46.0,30.04,West,275,2.0,9.0,48,0.00,,,0.01,,2013-10-07 20:22:00,
2013-10-07 16:33:00,66.0,46.0,30.04,West,275,2.0,9.0,48,0.00,,,0.01,,2013-10-07 20:33:00,
2013-10-07 16:52:00,66.0,46.0,30.04,West,275,2.0,9.0,48,0.00,,,0.01,,2013-10-07 20:52:00,
2013-10-07 17:12:00,66.0,46.0,30.04,WNW,285,1.0,8.0,48,0.00,,,0.01,,2013-10-07 21:12:00,
2013-10-07 17:23:00,66.0,46.0,30.04,WNW,285,1.0,8.0,48,0.00,,,0.01,,2013-10-07 21:23:00,
2013-10-07 17:55:00,67.0,47.0,30.04,WNW,284,3.0,9.0,48,0.00,,,0.01,,2013-10-07 21:55:00,
2013-10-07 18:13:00,67.0,47.0,30.04,WSW,248,2.0,8.0,49,0.00,,,0.01,,2013-10-07 22:13:00,
2013-10-07 18:24:00,67.0,47.0,30.04,WSW,248,2.0,8.0,49,0.00,,,0.01,,2013-10-07 22:24:00,
2013-10-07 18:53:00,67.0,46.0,30.04,NW,310,4.0,9.0,47,0.00,,,0.01,,2013-10-07 22:53:00,
2013-10-07 19:12:00,66.0,46.0,30.05,WSW,240,0.0,6.0,48,0.00,,,0.01,,2013-10-07 23:12:00,
2013-10-07 19:22:00,66.0,46.0,30.05,WSW,240,0.0,6.0,48,0.00,,,0.01,,2013-10-07 23:22:00,
2013-10-07 19:33:00,66.0,46.0,30.05,WSW,240,0.0,6.0,48,0.00,,,0.01,,2013-10-07 23:33:00,
2013-10-07 20:22:00,63.0,47.0,30.06,WNW,297,0.0,0.0,56,0.00,,,0.01,,2013-10-08 00:22:00,
2013-10-07 20:52:00,58.0,47.0,30.08,WNW,297,0.0,0.0,68,0.00,,,0.01,,2013-10-08 00:52:00,
2013-10-07 21:02:00,58.0,47.0,30.08,WNW,297,0.0,0.0,68,0.00,,,0.01,,2013-10-08 01:02:00,
2013-10-07 21:12:00,58.0,47.0,30.08,WNW,297,0.0,0.0,68,0.00,,,0.01,,2013-10-08 01:12:00,
2013-10-07 21:21:00,56.0,47.0,30.09,WNW,297,0.0,0.0,73,0.00,,,0.01,,2013-10-08 01:21:00,
2013-10-07 21:32:00,56.0,47.0,30.09,WNW,297,0.0,0.0,73,0.00,,,0.01,,2013-10-08 01:32:00,
2013-10-07 21:52:00,56.0,47.0,30.09,WNW,297,0.0,0.0,73,0.00,,,0.01,,2013-10-08 01:52:00,
2013-10-07 22:03:00,56.0,47.0,30.09,WNW,297,0.0,0.0,73,0.00,,,0.01,,2013-10-08 02:03:00,
2013-10-07 22:22:00,54.0,48.0,30.11,WNW,297,0.0,0.0,79,0.00,,,0.01,,2013-10-08 02:22:00,
2013-10-07 22:32:00,54.0,48.0,30.11,WNW,297,0.0,0.0,79,0.00,,,0.01,,2013-10-08 02:32:00,
2013-10-07 22:52:00,53.0,48.0,30.12,WNW,297,0.0,0.0,82,0.00,,,0.01,,2013-10-08 02:52:00,
2013-10-07 23:02:00,53.0,48.0,30.12,WNW,297,0.0,0.0,82,0.00,,,0.01,,2013-10-08 03:02:00,
2013-10-07 23:11:00,53.0,48.0,30.12,WNW,297,0.0,0.0,82,0.00,,,0.01,,2013-10-08 03:11:00,
2013-10-07 23:22:00,53.0,48.0,30.12,WNW,297,0.0,0.0,82,0.00,,,0.01,,2013-10-08 03:22:00,
2013-10-07 23:55:00,52.0,48.0,30.13,WNW,297,0.0,0.0,85,0.00,,,0.01,,2013-10-08 03:55:00,